Pagrindinis puslapis
METAR-TAF:

METAR-TAF

Oro uostai :

Pocono Mountains Municipal Airport

Mount Pocono, Pensilvanija, Jungtinės Amerikos Valstijos

platuma: 41-08-20N, ilguma: 075-23-46W, Aukštis: 584 m

Dabartinis oras

Ataskaita buvo paskelbta 46 minutes, ne 05:53 UTC
Vėjas 24 kt iš Vakarų su gūsio iki 36 kt
Temperatūra -7°C
Drėgmė 67%
Slėgis 1005 hPa
Matomumas: 16.1 km
Mažai debesys ne aukštis 3100 ft

METAR: KMPO 280553Z AUTO 26024G36KT 10SM FEW031 M07/M12 A2969 RMK AO2 PK WND 25036/0544 SNE01 SLP078 P0000 60000 T10671122 11056 21067 55000

Laikas: 01:39 (06:39 UTC)


TAF: trūkstamas

Orai ataskaitas ir orų prognozės (METAR, TAF).

turimą stotys yra geltonos ir raudonos taškus žemėlapyje.

Perkelti pele per norėdami pamatyti stoties vardą.

Tada spustelėkite, norėdami matyti oro stebėjimo ir prognozės.

Norėdami pakeisti žemėlapį: spustelėkite ant žalios mygtukų su juodo kryžiaus žemyn,; žalią mygtuką su brūkšneliu, jei norite nutolinti; arba žalių rodyklių gretimoms žemėlapius.


METAR-TAF: